sensor_id;sensor_type;location;lat;lon;timestamp;temperature;humidity
14252;DHT22;7210;51.502;10.722;2023-03-24T00:00:47;9.40;99.90
14252;DHT22;7210;51.502;10.722;2023-03-24T00:03:14;9.50;99.90
14252;DHT22;7210;51.502;10.722;2023-03-24T00:05:42;9.50;99.90
14252;DHT22;7210;51.502;10.722;2023-03-24T00:08:09;9.60;99.90
14252;DHT22;7210;51.502;10.722;2023-03-24T00:10:36;9.60;99.90
14252;DHT22;7210;51.502;10.722;2023-03-24T00:13:05;9.60;99.90
14252;DHT22;7210;51.502;10.722;2023-03-24T00:15:33;9.70;99.90
14252;DHT22;7210;51.502;10.722;2023-03-24T00:18:00;9.70;99.90
14252;DHT22;7210;51.502;10.722;2023-03-24T00:20:27;9.70;99.90
14252;DHT22;7210;51.502;10.722;2023-03-24T00:22:55;9.90;99.90
14252;DHT22;7210;51.502;10.722;2023-03-24T00:25:28;10.00;99.90
14252;DHT22;7210;51.502;10.722;2023-03-24T00:28:01;10.00;99.90
14252;DHT22;7210;51.502;10.722;2023-03-24T00:30:30;10.20;99.90
14252;DHT22;7210;51.502;10.722;2023-03-24T00:33:04;10.20;99.90
14252;DHT22;7210;51.502;10.722;2023-03-24T00:35:31;10.40;99.90
14252;DHT22;7210;51.502;10.722;2023-03-24T00:37:58;10.40;99.90
14252;DHT22;7210;51.502;10.722;2023-03-24T00:40:26;10.50;99.90
14252;DHT22;7210;51.502;10.722;2023-03-24T00:42:54;10.60;99.90
14252;DHT22;7210;51.502;10.722;2023-03-24T00:45:21;10.70;99.90
14252;DHT22;7210;51.502;10.722;2023-03-24T00:47:48;10.70;99.90
14252;DHT22;7210;51.502;10.722;2023-03-24T00:50:20;10.70;99.90
14252;DHT22;7210;51.502;10.722;2023-03-24T00:52:51;10.80;99.90
14252;DHT22;7210;51.502;10.722;2023-03-24T00:55:19;10.80;99.90
14252;DHT22;7210;51.502;10.722;2023-03-24T00:57:47;10.80;99.90
14252;DHT22;7210;51.502;10.722;2023-03-24T01:00:17;10.90;99.90
14252;DHT22;7210;51.502;10.722;2023-03-24T01:02:48;10.90;99.90
14252;DHT22;7210;51.502;10.722;2023-03-24T01:05:20;10.90;99.90
14252;DHT22;7210;51.502;10.722;2023-03-24T01:07:48;11.00;99.90
14252;DHT22;7210;51.502;10.722;2023-03-24T01:10:19;11.00;99.90
14252;DHT22;7210;51.502;10.722;2023-03-24T01:12:51;11.00;99.90
14252;DHT22;7210;51.502;10.722;2023-03-24T01:15:22;11.00;99.90
14252;DHT22;7210;51.502;10.722;2023-03-24T01:17:51;11.00;99.90
14252;DHT22;7210;51.502;10.722;2023-03-24T01:20:21;11.00;99.90
14252;DHT22;7210;51.502;10.722;2023-03-24T01:22:50;11.00;99.90
14252;DHT22;7210;51.502;10.722;2023-03-24T01:25:19;11.00;99.90
14252;DHT22;7210;51.502;10.722;2023-03-24T01:27:49;11.00;99.90
14252;DHT22;7210;51.502;10.722;2023-03-24T01:30:19;11.00;99.90
14252;DHT22;7210;51.502;10.722;2023-03-24T01:32:49;11.00;99.90
14252;DHT22;7210;51.502;10.722;2023-03-24T01:35:17;11.00;99.90
14252;DHT22;7210;51.502;10.722;2023-03-24T01:37:46;11.00;99.90
14252;DHT22;7210;51.502;10.722;2023-03-24T01:40:17;11.00;99.90
14252;DHT22;7210;51.502;10.722;2023-03-24T01:42:46;10.90;99.90
14252;DHT22;7210;51.502;10.722;2023-03-24T01:45:42;11.00;99.90
14252;DHT22;7210;51.502;10.722;2023-03-24T01:48:21;10.90;99.90
14252;DHT22;7210;51.502;10.722;2023-03-24T01:50:54;10.90;99.90
14252;DHT22;7210;51.502;10.722;2023-03-24T01:53:27;10.90;99.90
14252;DHT22;7210;51.502;10.722;2023-03-24T01:58:32;10.90;99.90
14252;DHT22;7210;51.502;10.722;2023-03-24T02:01:23;10.80;99.90
14252;DHT22;7210;51.502;10.722;2023-03-24T02:04:07;10.80;99.90
14252;DHT22;7210;51.502;10.722;2023-03-24T02:06:38;10.90;99.90
14252;DHT22;7210;51.502;10.722;2023-03-24T02:09:12;10.90;99.90
14252;DHT22;7210;51.502;10.722;2023-03-24T02:11:40;10.90;99.90
14252;DHT22;7210;51.502;10.722;2023-03-24T02:14:10;10.90;99.90
14252;DHT22;7210;51.502;10.722;2023-03-24T02:16:53;11.00;99.90
14252;DHT22;7210;51.502;10.722;2023-03-24T02:19:58;11.00;99.90
14252;DHT22;7210;51.502;10.722;2023-03-24T02:23:14;11.00;99.90
14252;DHT22;7210;51.502;10.722;2023-03-24T02:33:04;11.00;99.90
14252;DHT22;7210;51.502;10.722;2023-03-24T02:42:23;11.20;99.90
14252;DHT22;7210;51.502;10.722;2023-03-24T02:45:05;11.20;99.90
14252;DHT22;7210;51.502;10.722;2023-03-24T02:47:47;11.30;99.90
14252;DHT22;7210;51.502;10.722;2023-03-24T02:50:27;11.30;99.90
14252;DHT22;7210;51.502;10.722;2023-03-24T02:53:05;11.30;99.90
14252;DHT22;7210;51.502;10.722;2023-03-24T02:55:53;11.30;99.90
14252;DHT22;7210;51.502;10.722;2023-03-24T02:58:29;11.40;99.90
14252;DHT22;7210;51.502;10.722;2023-03-24T03:01:04;11.40;99.90
14252;DHT22;7210;51.502;10.722;2023-03-24T03:04:01;11.40;99.90
14252;DHT22;7210;51.502;10.722;2023-03-24T03:06:35;11.50;99.90
14252;DHT22;7210;51.502;10.722;2023-03-24T03:09:07;11.70;99.90
14252;DHT22;7210;51.502;10.722;2023-03-24T03:14:31;11.70;99.90
14252;DHT22;7210;51.502;10.722;2023-03-24T03:17:06;11.70;99.90
14252;DHT22;7210;51.502;10.722;2023-03-24T03:19:41;11.60;99.90
14252;DHT22;7210;51.502;10.722;2023-03-24T03:22:15;11.70;99.90
14252;DHT22;7210;51.502;10.722;2023-03-24T03:24:47;11.60;99.90
14252;DHT22;7210;51.502;10.722;2023-03-24T03:27:21;11.60;99.90
14252;DHT22;7210;51.502;10.722;2023-03-24T03:29:56;11.50;99.90
14252;DHT22;7210;51.502;10.722;2023-03-24T03:32:29;11.50;99.90
14252;DHT22;7210;51.502;10.722;2023-03-24T03:35:01;11.50;99.90
14252;DHT22;7210;51.502;10.722;2023-03-24T03:37:40;11.50;99.90
14252;DHT22;7210;51.502;10.722;2023-03-24T03:40:16;11.40;99.90
14252;DHT22;7210;51.502;10.722;2023-03-24T03:42:52;11.50;99.90
14252;DHT22;7210;51.502;10.722;2023-03-24T03:45:21;11.50;99.90
14252;DHT22;7210;51.502;10.722;2023-03-24T03:47:49;11.50;99.90
14252;DHT22;7210;51.502;10.722;2023-03-24T03:50:17;11.60;99.90
14252;DHT22;7210;51.502;10.722;2023-03-24T03:52:44;11.50;99.90
14252;DHT22;7210;51.502;10.722;2023-03-24T03:55:12;11.50;99.90
14252;DHT22;7210;51.502;10.722;2023-03-24T03:57:42;11.60;99.90
14252;DHT22;7210;51.502;10.722;2023-03-24T04:00:30;11.50;99.90
14252;DHT22;7210;51.502;10.722;2023-03-24T04:03:41;11.50;99.90
14252;DHT22;7210;51.502;10.722;2023-03-24T04:06:56;11.50;99.90
14252;DHT22;7210;51.502;10.722;2023-03-24T04:09:40;11.40;99.90
14252;DHT22;7210;51.502;10.722;2023-03-24T04:12:37;11.50;99.90
14252;DHT22;7210;51.502;10.722;2023-03-24T04:15:40;11.40;99.90
14252;DHT22;7210;51.502;10.722;2023-03-24T04:18:53;11.40;99.90
14252;DHT22;7210;51.502;10.722;2023-03-24T04:21:42;11.40;99.90
14252;DHT22;7210;51.502;10.722;2023-03-24T04:24:27;11.40;99.90
14252;DHT22;7210;51.502;10.722;2023-03-24T04:27:10;11.40;99.90
14252;DHT22;7210;51.502;10.722;2023-03-24T04:29:53;11.40;99.90
14252;DHT22;7210;51.502;10.722;2023-03-24T04:32:36;11.40;99.90
14252;DHT22;7210;51.502;10.722;2023-03-24T04:35:10;11.30;99.90
14252;DHT22;7210;51.502;10.722;2023-03-24T04:38:09;11.40;99.90
14252;DHT22;7210;51.502;10.722;2023-03-24T04:40:45;11.40;99.90
14252;DHT22;7210;51.502;10.722;2023-03-24T04:43:18;11.40;99.90
14252;DHT22;7210;51.502;10.722;2023-03-24T04:45:50;11.30;99.90
14252;DHT22;7210;51.502;10.722;2023-03-24T04:48:39;11.30;99.90
14252;DHT22;7210;51.502;10.722;2023-03-24T04:51:12;11.30;99.90
14252;DHT22;7210;51.502;10.722;2023-03-24T04:53:51;11.40;99.90
14252;DHT22;7210;51.502;10.722;2023-03-24T04:56:29;11.40;99.90
14252;DHT22;7210;51.502;10.722;2023-03-24T04:59:05;11.40;99.90
14252;DHT22;7210;51.502;10.722;2023-03-24T05:01:35;11.40;99.90
14252;DHT22;7210;51.502;10.722;2023-03-24T05:04:28;11.40;99.90
14252;DHT22;7210;51.502;10.722;2023-03-24T05:07:08;11.40;99.90
14252;DHT22;7210;51.502;10.722;2023-03-24T05:09:36;11.40;99.90
14252;DHT22;7210;51.502;10.722;2023-03-24T05:12:04;11.40;99.90
14252;DHT22;7210;51.502;10.722;2023-03-24T05:14:49;11.40;99.90
14252;DHT22;7210;51.502;10.722;2023-03-24T05:17:16;11.40;99.90
14252;DHT22;7210;51.502;10.722;2023-03-24T05:19:45;11.40;99.90
14252;DHT22;7210;51.502;10.722;2023-03-24T05:22:12;11.40;99.90
14252;DHT22;7210;51.502;10.722;2023-03-24T05:24:39;11.40;99.90
14252;DHT22;7210;51.502;10.722;2023-03-24T05:27:06;11.30;99.90
14252;DHT22;7210;51.502;10.722;2023-03-24T05:29:34;11.30;99.90
14252;DHT22;7210;51.502;10.722;2023-03-24T05:32:01;11.20;99.90
14252;DHT22;7210;51.502;10.722;2023-03-24T05:34:29;11.20;99.90
14252;DHT22;7210;51.502;10.722;2023-03-24T05:37:07;11.20;99.90
14252;DHT22;7210;51.502;10.722;2023-03-24T05:39:37;11.20;99.90
14252;DHT22;7210;51.502;10.722;2023-03-24T05:42:08;11.20;99.90
14252;DHT22;7210;51.502;10.722;2023-03-24T05:44:35;11.20;99.90
14252;DHT22;7210;51.502;10.722;2023-03-24T05:47:06;11.20;99.90
14252;DHT22;7210;51.502;10.722;2023-03-24T05:49:33;11.20;99.90
14252;DHT22;7210;51.502;10.722;2023-03-24T05:52:01;11.20;99.90
14252;DHT22;7210;51.502;10.722;2023-03-24T05:54:30;11.20;99.90
14252;DHT22;7210;51.502;10.722;2023-03-24T05:57:12;11.20;99.90
14252;DHT22;7210;51.502;10.722;2023-03-24T06:00:07;11.20;99.90
14252;DHT22;7210;51.502;10.722;2023-03-24T06:02:49;11.20;99.90
14252;DHT22;7210;51.502;10.722;2023-03-24T06:05:38;11.20;99.90
14252;DHT22;7210;51.502;10.722;2023-03-24T06:08:07;11.30;99.90
14252;DHT22;7210;51.502;10.722;2023-03-24T06:10:37;11.30;99.90
14252;DHT22;7210;51.502;10.722;2023-03-24T06:13:06;11.30;99.90
14252;DHT22;7210;51.502;10.722;2023-03-24T06:15:35;11.40;99.90
14252;DHT22;7210;51.502;10.722;2023-03-24T06:18:25;11.50;99.90
14252;DHT22;7210;51.502;10.722;2023-03-24T06:20:54;11.50;99.90
14252;DHT22;7210;51.502;10.722;2023-03-24T06:23:28;11.50;99.90
14252;DHT22;7210;51.502;10.722;2023-03-24T06:26:07;11.50;99.90
14252;DHT22;7210;51.502;10.722;2023-03-24T06:28:42;11.50;99.90
14252;DHT22;7210;51.502;10.722;2023-03-24T06:31:27;11.50;99.90
14252;DHT22;7210;51.502;10.722;2023-03-24T06:33:55;11.60;99.90
14252;DHT22;7210;51.502;10.722;2023-03-24T06:36:22;11.70;99.90
14252;DHT22;7210;51.502;10.722;2023-03-24T06:38:50;11.70;99.90
14252;DHT22;7210;51.502;10.722;2023-03-24T06:41:21;11.70;99.90
14252;DHT22;7210;51.502;10.722;2023-03-24T06:43:56;11.60;99.90
14252;DHT22;7210;51.502;10.722;2023-03-24T06:46:24;11.70;99.90
14252;DHT22;7210;51.502;10.722;2023-03-24T06:48:52;11.70;99.90
14252;DHT22;7210;51.502;10.722;2023-03-24T06:51:19;11.60;99.90
14252;DHT22;7210;51.502;10.722;2023-03-24T06:53:47;11.70;99.90
14252;DHT22;7210;51.502;10.722;2023-03-24T06:56:14;11.70;99.90
14252;DHT22;7210;51.502;10.722;2023-03-24T06:58:48;11.70;99.90
14252;DHT22;7210;51.502;10.722;2023-03-24T07:01:23;11.80;99.90
14252;DHT22;7210;51.502;10.722;2023-03-24T07:03:51;11.80;99.90
14252;DHT22;7210;51.502;10.722;2023-03-24T07:06:29;11.90;99.90
14252;DHT22;7210;51.502;10.722;2023-03-24T07:09:03;12.10;99.90
14252;DHT22;7210;51.502;10.722;2023-03-24T07:11:31;12.20;99.90
14252;DHT22;7210;51.502;10.722;2023-03-24T07:14:01;12.40;99.90
14252;DHT22;7210;51.502;10.722;2023-03-24T07:16:30;12.50;99.90
14252;DHT22;7210;51.502;10.722;2023-03-24T07:19:07;12.50;99.90
14252;DHT22;7210;51.502;10.722;2023-03-24T07:21:37;12.60;99.90
14252;DHT22;7210;51.502;10.722;2023-03-24T07:24:05;12.60;99.90
14252;DHT22;7210;51.502;10.722;2023-03-24T07:26:41;12.70;99.90
14252;DHT22;7210;51.502;10.722;2023-03-24T07:29:27;12.70;99.90
14252;DHT22;7210;51.502;10.722;2023-03-24T07:32:15;12.80;99.90
14252;DHT22;7210;51.502;10.722;2023-03-24T07:34:43;12.80;99.90
14252;DHT22;7210;51.502;10.722;2023-03-24T07:37:11;12.90;99.90
14252;DHT22;7210;51.502;10.722;2023-03-24T07:39:38;12.80;99.90
14252;DHT22;7210;51.502;10.722;2023-03-24T07:42:06;12.80;99.90
14252;DHT22;7210;51.502;10.722;2023-03-24T07:44:53;12.90;99.90
14252;DHT22;7210;51.502;10.722;2023-03-24T07:47:20;13.00;99.90
14252;DHT22;7210;51.502;10.722;2023-03-24T07:49:48;13.10;99.90
14252;DHT22;7210;51.502;10.722;2023-03-24T07:52:19;13.30;99.90
14252;DHT22;7210;51.502;10.722;2023-03-24T07:54:50;13.50;99.90
14252;DHT22;7210;51.502;10.722;2023-03-24T07:57:36;13.60;99.90
14252;DHT22;7210;51.502;10.722;2023-03-24T08:00:09;13.70;99.90
14252;DHT22;7210;51.502;10.722;2023-03-24T08:02:52;13.70;99.90
14252;DHT22;7210;51.502;10.722;2023-03-24T08:05:41;13.70;99.90
14252;DHT22;7210;51.502;10.722;2023-03-24T08:08:18;13.70;99.90
14252;DHT22;7210;51.502;10.722;2023-03-24T08:10:47;13.80;99.90
14252;DHT22;7210;51.502;10.722;2023-03-24T08:13:15;13.90;99.90
14252;DHT22;7210;51.502;10.722;2023-03-24T08:15:44;13.70;99.90
14252;DHT22;7210;51.502;10.722;2023-03-24T08:18:11;13.70;99.90
14252;DHT22;7210;51.502;10.722;2023-03-24T08:20:38;13.50;99.90
14252;DHT22;7210;51.502;10.722;2023-03-24T08:23:05;13.40;99.90
14252;DHT22;7210;51.502;10.722;2023-03-24T08:25:33;13.30;99.90
14252;DHT22;7210;51.502;10.722;2023-03-24T08:28:00;13.20;99.90
14252;DHT22;7210;51.502;10.722;2023-03-24T08:30:28;13.00;99.90
14252;DHT22;7210;51.502;10.722;2023-03-24T08:32:59;12.90;99.90
14252;DHT22;7210;51.502;10.722;2023-03-24T08:35:29;12.60;99.90
14252;DHT22;7210;51.502;10.722;2023-03-24T08:37:58;12.40;99.90
14252;DHT22;7210;51.502;10.722;2023-03-24T08:40:28;12.30;99.90
14252;DHT22;7210;51.502;10.722;2023-03-24T08:42:58;12.20;99.90
14252;DHT22;7210;51.502;10.722;2023-03-24T08:45:29;12.10;99.90
14252;DHT22;7210;51.502;10.722;2023-03-24T08:48:01;12.00;99.90
14252;DHT22;7210;51.502;10.722;2023-03-24T08:50:33;12.00;99.90
14252;DHT22;7210;51.502;10.722;2023-03-24T08:53:03;11.90;99.90
14252;DHT22;7210;51.502;10.722;2023-03-24T08:55:31;11.90;99.90
14252;DHT22;7210;51.502;10.722;2023-03-24T08:58:00;12.00;99.90
14252;DHT22;7210;51.502;10.722;2023-03-24T09:00:27;12.00;99.90
14252;DHT22;7210;51.502;10.722;2023-03-24T09:02:55;12.20;99.90
14252;DHT22;7210;51.502;10.722;2023-03-24T09:05:24;12.30;99.90
14252;DHT22;7210;51.502;10.722;2023-03-24T09:07:52;12.50;99.90
14252;DHT22;7210;51.502;10.722;2023-03-24T09:10:20;12.80;99.90
14252;DHT22;7210;51.502;10.722;2023-03-24T09:12:49;13.10;99.90
14252;DHT22;7210;51.502;10.722;2023-03-24T09:15:16;13.30;99.90
14252;DHT22;7210;51.502;10.722;2023-03-24T09:17:44;13.40;99.90
14252;DHT22;7210;51.502;10.722;2023-03-24T09:20:13;13.50;99.90
14252;DHT22;7210;51.502;10.722;2023-03-24T09:22:44;13.60;99.90
14252;DHT22;7210;51.502;10.722;2023-03-24T09:25:15;13.70;99.90
14252;DHT22;7210;51.502;10.722;2023-03-24T09:27:45;13.70;99.90
14252;DHT22;7210;51.502;10.722;2023-03-24T09:30:14;13.70;99.90
14252;DHT22;7210;51.502;10.722;2023-03-24T09:32:49;13.90;99.90
14252;DHT22;7210;51.502;10.722;2023-03-24T09:35:16;13.90;99.90
14252;DHT22;7210;51.502;10.722;2023-03-24T09:37:45;13.90;99.90
14252;DHT22;7210;51.502;10.722;2023-03-24T09:40:18;13.90;99.90
14252;DHT22;7210;51.502;10.722;2023-03-24T09:42:53;14.00;99.90
14252;DHT22;7210;51.502;10.722;2023-03-24T09:45:25;14.00;99.90
14252;DHT22;7210;51.502;10.722;2023-03-24T09:47:57;14.00;99.90
14252;DHT22;7210;51.502;10.722;2023-03-24T09:50:33;14.10;99.90
14252;DHT22;7210;51.502;10.722;2023-03-24T09:53:12;14.20;99.90
14252;DHT22;7210;51.502;10.722;2023-03-24T09:55:50;14.20;99.90
14252;DHT22;7210;51.502;10.722;2023-03-24T09:58:19;14.20;99.90
14252;DHT22;7210;51.502;10.722;2023-03-24T10:00:48;14.10;99.90
14252;DHT22;7210;51.502;10.722;2023-03-24T10:03:18;14.00;99.90
14252;DHT22;7210;51.502;10.722;2023-03-24T10:05:50;14.10;99.90
14252;DHT22;7210;51.502;10.722;2023-03-24T10:08:27;14.00;99.90
14252;DHT22;7210;51.502;10.722;2023-03-24T10:11:03;14.00;99.90
14252;DHT22;7210;51.502;10.722;2023-03-24T10:13:42;14.00;99.90
14252;DHT22;7210;51.502;10.722;2023-03-24T10:16:21;14.10;99.90
14252;DHT22;7210;51.502;10.722;2023-03-24T10:19:14;14.10;99.90
14252;DHT22;7210;51.502;10.722;2023-03-24T10:21:56;14.10;99.90
14252;DHT22;7210;51.502;10.722;2023-03-24T10:24:33;14.30;99.90
14252;DHT22;7210;51.502;10.722;2023-03-24T10:27:16;14.40;99.90
14252;DHT22;7210;51.502;10.722;2023-03-24T10:29:53;14.60;99.90
14252;DHT22;7210;51.502;10.722;2023-03-24T10:32:26;14.60;99.90
14252;DHT22;7210;51.502;10.722;2023-03-24T10:34:59;14.80;99.90
14252;DHT22;7210;51.502;10.722;2023-03-24T10:37:34;14.80;99.90
14252;DHT22;7210;51.502;10.722;2023-03-24T10:40:12;14.80;99.90
14252;DHT22;7210;51.502;10.722;2023-03-24T10:42:44;14.70;99.90
14252;DHT22;7210;51.502;10.722;2023-03-24T10:45:16;14.60;99.90
14252;DHT22;7210;51.502;10.722;2023-03-24T10:47:50;14.60;99.90
14252;DHT22;7210;51.502;10.722;2023-03-24T10:50:24;14.50;99.90
14252;DHT22;7210;51.502;10.722;2023-03-24T10:52:53;14.40;99.90
14252;DHT22;7210;51.502;10.722;2023-03-24T10:55:28;14.20;99.90
14252;DHT22;7210;51.502;10.722;2023-03-24T10:57:58;14.30;99.90
14252;DHT22;7210;51.502;10.722;2023-03-24T11:00:28;14.40;99.90
14252;DHT22;7210;51.502;10.722;2023-03-24T11:02:59;14.20;99.90
14252;DHT22;7210;51.502;10.722;2023-03-24T11:05:31;14.20;99.90
14252;DHT22;7210;51.502;10.722;2023-03-24T11:08:13;14.10;99.90
14252;DHT22;7210;51.502;10.722;2023-03-24T11:10:53;14.20;99.90
14252;DHT22;7210;51.502;10.722;2023-03-24T11:13:30;14.10;99.90
14252;DHT22;7210;51.502;10.722;2023-03-24T11:16:10;14.00;99.90
14252;DHT22;7210;51.502;10.722;2023-03-24T11:18:54;13.90;99.90
14252;DHT22;7210;51.502;10.722;2023-03-24T11:21:23;13.80;99.90
14252;DHT22;7210;51.502;10.722;2023-03-24T11:23:50;13.70;99.90
14252;DHT22;7210;51.502;10.722;2023-03-24T11:26:21;13.60;99.90
14252;DHT22;7210;51.502;10.722;2023-03-24T11:29:03;13.50;99.90
14252;DHT22;7210;51.502;10.722;2023-03-24T11:31:36;13.60;99.90
14252;DHT22;7210;51.502;10.722;2023-03-24T11:34:08;13.70;99.90
14252;DHT22;7210;51.502;10.722;2023-03-24T11:36:41;13.80;99.90
14252;DHT22;7210;51.502;10.722;2023-03-24T11:39:16;14.00;99.90
14252;DHT22;7210;51.502;10.722;2023-03-24T11:41:58;14.10;99.90
14252;DHT22;7210;51.502;10.722;2023-03-24T11:44:31;14.10;99.90
14252;DHT22;7210;51.502;10.722;2023-03-24T11:47:10;14.10;99.90
14252;DHT22;7210;51.502;10.722;2023-03-24T11:49:45;14.10;99.90
14252;DHT22;7210;51.502;10.722;2023-03-24T11:52:21;14.00;99.90
14252;DHT22;7210;51.502;10.722;2023-03-24T11:54:50;14.20;99.90
14252;DHT22;7210;51.502;10.722;2023-03-24T11:57:26;14.00;99.90
14252;DHT22;7210;51.502;10.722;2023-03-24T12:00:13;13.90;99.90
14252;DHT22;7210;51.502;10.722;2023-03-24T12:03:08;13.80;99.90
14252;DHT22;7210;51.502;10.722;2023-03-24T12:05:51;13.60;99.90
14252;DHT22;7210;51.502;10.722;2023-03-24T12:08:35;13.30;99.90
14252;DHT22;7210;51.502;10.722;2023-03-24T12:11:16;13.10;99.90
14252;DHT22;7210;51.502;10.722;2023-03-24T12:13:52;13.00;99.90
14252;DHT22;7210;51.502;10.722;2023-03-24T12:16:39;13.00;99.90
14252;DHT22;7210;51.502;10.722;2023-03-24T12:19:39;13.00;99.90
14252;DHT22;7210;51.502;10.722;2023-03-24T12:22:32;13.10;99.90
14252;DHT22;7210;51.502;10.722;2023-03-24T12:25:29;13.10;99.90
14252;DHT22;7210;51.502;10.722;2023-03-24T12:28:32;13.20;99.90
14252;DHT22;7210;51.502;10.722;2023-03-24T12:31:42;13.50;99.90
14252;DHT22;7210;51.502;10.722;2023-03-24T12:34:51;13.60;99.90
14252;DHT22;7210;51.502;10.722;2023-03-24T12:37:32;13.80;99.90
14252;DHT22;7210;51.502;10.722;2023-03-24T12:40:35;14.10;99.90
14252;DHT22;7210;51.502;10.722;2023-03-24T12:43:29;14.50;99.90
14252;DHT22;7210;51.502;10.722;2023-03-24T12:46:14;14.60;1.40
14252;DHT22;7210;51.502;10.722;2023-03-24T12:49:05;14.70;1.00
14252;DHT22;7210;51.502;10.722;2023-03-24T12:51:48;14.80;1.00
14252;DHT22;7210;51.502;10.722;2023-03-24T12:54:29;14.90;1.00
14252;DHT22;7210;51.502;10.722;2023-03-24T12:57:04;14.80;1.00
14252;DHT22;7210;51.502;10.722;2023-03-24T12:59:38;14.70;1.00
14252;DHT22;7210;51.502;10.722;2023-03-24T13:02:20;14.70;1.00
14252;DHT22;7210;51.502;10.722;2023-03-24T13:04:59;14.90;1.00
14252;DHT22;7210;51.502;10.722;2023-03-24T13:07:32;14.60;1.00
14252;DHT22;7210;51.502;10.722;2023-03-24T13:10:11;14.60;1.00
14252;DHT22;7210;51.502;10.722;2023-03-24T13:12:44;14.60;1.00
14252;DHT22;7210;51.502;10.722;2023-03-24T13:15:17;14.70;1.00
14252;DHT22;7210;51.502;10.722;2023-03-24T13:17:52;14.70;1.00
14252;DHT22;7210;51.502;10.722;2023-03-24T13:20:30;14.50;1.00
14252;DHT22;7210;51.502;10.722;2023-03-24T13:23:04;14.40;1.00
14252;DHT22;7210;51.502;10.722;2023-03-24T13:25:52;14.40;1.00
14252;DHT22;7210;51.502;10.722;2023-03-24T13:28:29;14.30;1.00
14252;DHT22;7210;51.502;10.722;2023-03-24T13:31:07;14.40;1.00
14252;DHT22;7210;51.502;10.722;2023-03-24T13:33:38;14.50;1.00
14252;DHT22;7210;51.502;10.722;2023-03-24T13:36:23;14.50;1.40
14252;DHT22;7210;51.502;10.722;2023-03-24T13:39:02;14.40;1.00
14252;DHT22;7210;51.502;10.722;2023-03-24T13:41:35;14.00;1.00
14252;DHT22;7210;51.502;10.722;2023-03-24T13:44:07;13.90;99.90
14252;DHT22;7210;51.502;10.722;2023-03-24T13:46:42;14.10;99.90
14252;DHT22;7210;51.502;10.722;2023-03-24T13:49:12;14.30;1.40
14252;DHT22;7210;51.502;10.722;2023-03-24T13:51:43;14.20;1.00
14252;DHT22;7210;51.502;10.722;2023-03-24T13:54:14;14.10;1.00
14252;DHT22;7210;51.502;10.722;2023-03-24T13:56:47;14.00;99.90
14252;DHT22;7210;51.502;10.722;2023-03-24T13:59:30;13.90;99.90
14252;DHT22;7210;51.502;10.722;2023-03-24T14:02:16;14.00;1.40
14252;DHT22;7210;51.502;10.722;2023-03-24T14:04:48;14.00;99.90
14252;DHT22;7210;51.502;10.722;2023-03-24T14:07:41;13.80;99.90
14252;DHT22;7210;51.502;10.722;2023-03-24T14:10:39;13.60;99.90
14252;DHT22;7210;51.502;10.722;2023-03-24T14:13:32;13.50;99.90
14252;DHT22;7210;51.502;10.722;2023-03-24T14:16:26;13.50;99.90
14252;DHT22;7210;51.502;10.722;2023-03-24T14:19:34;13.60;99.90
14252;DHT22;7210;51.502;10.722;2023-03-24T14:22:23;13.90;99.90
14252;DHT22;7210;51.502;10.722;2023-03-24T14:24:59;13.90;1.40
14252;DHT22;7210;51.502;10.722;2023-03-24T14:27:34;13.80;1.00
14252;DHT22;7210;51.502;10.722;2023-03-24T14:30:14;13.70;1.00
14252;DHT22;7210;51.502;10.722;2023-03-24T14:32:48;13.60;99.90
14252;DHT22;7210;51.502;10.722;2023-03-24T14:35:33;13.50;99.90
14252;DHT22;7210;51.502;10.722;2023-03-24T14:38:21;13.50;99.90
14252;DHT22;7210;51.502;10.722;2023-03-24T14:40:56;13.50;99.90
14252;DHT22;7210;51.502;10.722;2023-03-24T14:43:27;13.60;99.90
14252;DHT22;7210;51.502;10.722;2023-03-24T14:45:59;13.80;99.90
14252;DHT22;7210;51.502;10.722;2023-03-24T14:48:36;14.10;1.00
14252;DHT22;7210;51.502;10.722;2023-03-24T14:51:15;14.40;1.00
14252;DHT22;7210;51.502;10.722;2023-03-24T14:53:55;14.80;1.00
14252;DHT22;7210;51.502;10.722;2023-03-24T14:56:34;15.00;1.00
14252;DHT22;7210;51.502;10.722;2023-03-24T14:59:10;15.10;1.00
14252;DHT22;7210;51.502;10.722;2023-03-24T15:01:50;15.30;1.00
14252;DHT22;7210;51.502;10.722;2023-03-24T15:04:26;15.40;1.00
14252;DHT22;7210;51.502;10.722;2023-03-24T15:06:53;15.60;1.00
14252;DHT22;7210;51.502;10.722;2023-03-24T15:09:20;15.60;1.00
14252;DHT22;7210;51.502;10.722;2023-03-24T15:11:49;15.40;1.00
14252;DHT22;7210;51.502;10.722;2023-03-24T15:14:20;15.30;1.00
14252;DHT22;7210;51.502;10.722;2023-03-24T15:16:52;15.10;1.00
14252;DHT22;7210;51.502;10.722;2023-03-24T15:19:24;14.80;1.00
14252;DHT22;7210;51.502;10.722;2023-03-24T15:21:58;14.60;1.00
14252;DHT22;7210;51.502;10.722;2023-03-24T15:24:33;14.40;1.00
14252;DHT22;7210;51.502;10.722;2023-03-24T15:27:23;14.20;1.00
14252;DHT22;7210;51.502;10.722;2023-03-24T15:29:56;14.10;1.00
14252;DHT22;7210;51.502;10.722;2023-03-24T15:32:27;14.00;1.00
14252;DHT22;7210;51.502;10.722;2023-03-24T15:34:58;13.90;1.00
14252;DHT22;7210;51.502;10.722;2023-03-24T15:37:32;13.80;1.00
14252;DHT22;7210;51.502;10.722;2023-03-24T15:40:02;13.70;1.00
14252;DHT22;7210;51.502;10.722;2023-03-24T15:42:32;13.70;99.90
14252;DHT22;7210;51.502;10.722;2023-03-24T15:45:16;13.70;99.90
14252;DHT22;7210;51.502;10.722;2023-03-24T15:47:50;13.70;1.40
14252;DHT22;7210;51.502;10.722;2023-03-24T15:50:30;13.70;99.90
14252;DHT22;7210;51.502;10.722;2023-03-24T15:53:01;13.70;99.90
14252;DHT22;7210;51.502;10.722;2023-03-24T15:55:31;13.70;1.00
14252;DHT22;7210;51.502;10.722;2023-03-24T15:58:21;13.80;1.00
14252;DHT22;7210;51.502;10.722;2023-03-24T16:00:53;13.90;1.00
14252;DHT22;7210;51.502;10.722;2023-03-24T16:03:24;14.00;1.00
14252;DHT22;7210;51.502;10.722;2023-03-24T16:05:53;14.20;1.00
14252;DHT22;7210;51.502;10.722;2023-03-24T16:08:26;14.20;1.00
14252;DHT22;7210;51.502;10.722;2023-03-24T16:10:57;14.20;1.00
14252;DHT22;7210;51.502;10.722;2023-03-24T16:13:27;14.10;1.00
14252;DHT22;7210;51.502;10.722;2023-03-24T16:15:56;14.00;1.00
14252;DHT22;7210;51.502;10.722;2023-03-24T16:18:28;13.90;1.00
14252;DHT22;7210;51.502;10.722;2023-03-24T16:20:58;13.80;1.00
14252;DHT22;7210;51.502;10.722;2023-03-24T16:23:26;13.70;1.00
14252;DHT22;7210;51.502;10.722;2023-03-24T16:25:53;13.70;1.00
14252;DHT22;7210;51.502;10.722;2023-03-24T16:28:21;13.70;1.00
14252;DHT22;7210;51.502;10.722;2023-03-24T16:30:57;13.70;1.00
14252;DHT22;7210;51.502;10.722;2023-03-24T16:33:26;13.50;1.00
14252;DHT22;7210;51.502;10.722;2023-03-24T16:35:55;13.40;1.00
14252;DHT22;7210;51.502;10.722;2023-03-24T16:38:23;13.30;99.90
14252;DHT22;7210;51.502;10.722;2023-03-24T16:40:51;13.10;1.40
14252;DHT22;7210;51.502;10.722;2023-03-24T16:43:19;13.00;1.00
14252;DHT22;7210;51.502;10.722;2023-03-24T16:45:48;12.90;99.90